Terminal Aerodrome Forecast
Issued by NWS

Home | Current Version | Previous Version | Text Only | Print | Product List | Glossary On
Versions: 1 2 3 4 5 6 7 8 9 10 11 12 13 14 15 16 17 18 19 20 21 22 23 24 25 26 27 28
809
FTUS41 KBTV 251141
TAFSLK
TAF
KSLK 251141Z 2512/2612 19010KT P6SM BKN025 WS020/20035KT
     FM251700 18015G27KT P6SM VCSH BKN025
      TEMPO 2519/2523 2SM +SHRA BR OVC015
     FM252300 24012G22KT 4SM -SHRA BR OVC020
     FM260200 25010G20KT P6SM VCSH OVC025
     FM260700 26012G22KT P6SM BKN030=

USA.gov is the U.S. government's official web portal to all federal, state and local government web resources and services.